Map

Track Data

SID SEASON NUMBER BASIN SUBBASIN NAME ISO_TIME NATURE LAT LON WMO_WIND WMO_PRES WMO_AGENCY TRACK_TYPE DIST2LAND LANDFALL IFLAG USA_AGENCY USA_ATCF_ID USA_LAT USA_LON USA_RECORD USA_STATUS USA_WIND USA_PRES USA_SSHS USA_R34_NE USA_R34_SE USA_R34_SW USA_R34_NW USA_R50_NE USA_R50_SE USA_R50_SW USA_R50_NW USA_R64_NE USA_R64_SE USA_R64_SW USA_R64_NW USA_POCI USA_ROCI USA_RMW USA_EYE TOKYO_LAT TOKYO_LON TOKYO_GRADE TOKYO_WIND TOKYO_PRES TOKYO_R50_DIR TOKYO_R50_LONG TOKYO_R50_SHORT TOKYO_R30_DIR TOKYO_R30_LONG TOKYO_R30_SHORT TOKYO_LAND CMA_LAT CMA_LON CMA_CAT CMA_WIND CMA_PRES HKO_LAT HKO_LON HKO_CAT HKO_WIND HKO_PRES NEWDELHI_LAT NEWDELHI_LON NEWDELHI_GRADE NEWDELHI_WIND NEWDELHI_PRES NEWDELHI_CI NEWDELHI_DP NEWDELHI_POCI REUNION_LAT REUNION_LON REUNION_TYPE REUNION_WIND REUNION_PRES REUNION_TNUM REUNION_CI REUNION_RMW REUNION_R34_NE REUNION_R34_SE REUNION_R34_SW REUNION_R34_NW REUNION_R50_NE REUNION_R50_SE REUNION_R50_SW REUNION_R50_NW REUNION_R64_NE REUNION_R64_SE REUNION_R64_SW REUNION_R64_NW BOM_LAT BOM_LON BOM_TYPE BOM_WIND BOM_PRES BOM_TNUM BOM_CI BOM_RMW BOM_R34_NE BOM_R34_SE BOM_R34_SW BOM_R34_NW BOM_R50_NE BOM_R50_SE BOM_R50_SW BOM_R50_NW BOM_R64_NE BOM_R64_SE BOM_R64_SW BOM_R64_NW BOM_ROCI BOM_POCI BOM_EYE BOM_POS_METHOD BOM_PRES_METHOD NADI_LAT NADI_LON NADI_CAT NADI_WIND NADI_PRES WELLINGTON_LAT WELLINGTON_LON WELLINGTON_WIND WELLINGTON_PRES DS824_LAT DS824_LON DS824_STAGE DS824_WIND DS824_PRES TD9636_LAT TD9636_LON TD9636_STAGE TD9636_WIND TD9636_PRES TD9635_LAT TD9635_LON TD9635_WIND TD9635_PRES TD9635_ROCI NEUMANN_LAT NEUMANN_LON NEUMANN_CLASS NEUMANN_WIND NEUMANN_PRES MLC_LAT MLC_LON MLC_CLASS MLC_WIND MLC_PRES USA_GUST BOM_GUST BOM_GUST_PER REUNION_GUST REUNION_GUST_PER USA_SEAHGT USA_SEARAD_NE USA_SEARAD_SE USA_SEARAD_SW USA_SEARAD_NW STORM_SPEED STORM_DIR
1975184N18145 1975 53 WP MM NOT_NAMED 1975-07-03 06:00:00 TS 17.5000 145.000 main 1999 1962 __O___________ -1 17.5000 145.000 0 19 1007 11 280
1975184N18145 1975 53 WP MM NOT_NAMED 1975-07-03 09:00:00 TS 17.6027 144.415 main 1962 1926 __P___________ -1 17.6027 144.415 0 19 1007 12 280
1975184N18145 1975 53 WP MM NOT_NAMED 1975-07-03 12:00:00 TS 17.7000 143.800 main 1926 1892 __O___________ -1 17.7000 143.800 0 19 1007 12 279
1975184N18145 1975 53 WP MM NOT_NAMED 1975-07-03 15:00:00 TS 17.7925 143.142 main 1888 1855 __P___________ -1 17.7925 143.142 0 19 1007 13 279
1975184N18145 1975 53 WP MM NOT_NAMED 1975-07-03 18:00:00 TS 17.9000 142.500 main 1855 1827 __O___________ -1 17.9000 142.500 0 19 1007 12 282
1975184N18145 1975 53 WP MM NOT_NAMED 1975-07-03 21:00:00 TS 18.0348 141.927 main 1824 1784 __P___________ -1 18.0348 141.927 0 19 1006 11 286
1975184N18145 1975 53 WP MM NOT_NAMED 1975-07-04 00:00:00 TS 18.2000 141.400 main 1784 1737 __O___________ -1 18.2000 141.400 0 19 1006 10 290
1975184N18145 1975 53 WP MM NOT_NAMED 1975-07-04 03:00:00 TS 18.3847 140.907 main 1737 1691 __P___________ -1 18.3847 140.907 0 21 1005 10 293
1975184N18145 1975 53 WP MM NOT_NAMED 1975-07-04 06:00:00 TS 18.6000 140.400 main 1691 1640 __O___________ -1 18.6000 140.400 1 23 1005 11 292
1975184N18145 1975 53 WP MM NOT_NAMED 1975-07-04 09:00:00 TS 18.8126 139.800 main 1640 1579 __P___________ -1 18.8126 139.800 1 23 1005 12 294
1975184N18145 1975 53 WP MM NOT_NAMED 1975-07-04 12:00:00 TS 19.1000 139.200 main 1579 1514 __O___________ -1 19.1000 139.200 1 23 1005 13 303
1975184N18145 1975 53 WP MM NOT_NAMED 1975-07-04 15:00:00 TS 19.5123 138.677 main 1514 1439 __P___________ -1 19.5123 138.677 1 23 1005 13 314
1975184N18145 1975 53 WP MM NOT_NAMED 1975-07-04 18:00:00 TS 20.0000 138.200 main 1439 1365 __O___________ -1 20.0000 138.200 1 23 1005 13 317
1975184N18145 1975 53 WP MM NOT_NAMED 1975-07-04 21:00:00 TS 20.4925 137.720 main 1365 1296 __P___________ -1 20.4925 137.720 1 26 1005 13 320
1975184N18145 1975 53 WP MM NOT_NAMED 1975-07-05 00:00:00 TS 21.0000 137.300 main 1296 1232 __O___________ -1 21.0000 137.300 1 29 1005 12 326
1975184N18145 1975 53 WP MM NOT_NAMED 1975-07-05 03:00:00 TS 21.4998 136.984 main 1232 1168 __P___________ -1 21.4998 136.984 1 29 1004 12 331
1975184N18145 1975 53 WP MM NOT_NAMED 1975-07-05 06:00:00 TS 22.0000 136.700 main 1168 1104 __O___________ -1 22.0000 136.700 1 29 1003 12 329
1975184N18145 1975 53 WP MM NOT_NAMED 1975-07-05 09:00:00 TS 22.4851 136.342 main 1099 1035 __P___________ -1 22.4851 136.342 1 24 1004 12 327
1975184N18145 1975 53 WP MM NOT_NAMED 1975-07-05 12:00:00 TS 23.0000 136.000 main 1035 971 __O___________ -1 23.0000 136.000 0 19 1006 12 333
1975184N18145 1975 53 WP MM NOT_NAMED 1975-07-05 15:00:00 TS 23.5800 135.728 main 962 894 __P___________ -1 23.5800 135.728 0 19 1006 13 339
1975184N18145 1975 53 WP MM NOT_NAMED 1975-07-05 18:00:00 TS 24.2000 135.500 main 894 __O___________ -1 24.2000 135.500 0 19 1006 13 341

Digital Typhoon Data and Search

About IBTrACS Database

This database is a web-friendly format of International Best Track Archive for Climate Stewardship (IBTrACS), a global best track data archive curated by NOAA dating back to 1842.

Updated: 2021-12-06